createdAt,value
2018-11-27T00:00:35.495Z,99861.59
2018-11-27T00:03:06.307Z,99861.13
2018-11-27T00:05:35.590Z,99863.72
2018-11-27T00:08:04.137Z,99854.57
2018-11-27T00:10:33.931Z,99855.44
2018-11-27T00:13:02.471Z,99855.01
2018-11-27T00:15:31.077Z,99858.47
2018-11-27T00:17:59.635Z,99861.51
2018-11-27T00:20:28.186Z,99858.02
2018-11-27T00:22:56.677Z,99862.80
2018-11-27T00:25:25.199Z,99863.23
2018-11-27T00:27:53.777Z,99864.95
2018-11-27T00:30:22.654Z,99864.50
2018-11-27T00:32:51.179Z,99860.54
2018-11-27T00:35:20.591Z,99864.88
2018-11-27T00:37:49.214Z,99863.58
2018-11-27T00:40:19.751Z,99869.20
2018-11-27T00:42:48.285Z,99866.19
2018-11-27T00:45:19.166Z,99864.88
2018-11-27T00:47:48.891Z,99866.19
2018-11-27T00:50:18.566Z,99693.95
2018-11-27T00:52:47.067Z,99873.50
2018-11-27T00:55:16.579Z,99874.36
2018-11-27T00:57:46.208Z,99877.41
2018-11-27T01:00:16.523Z,99869.99
2018-11-27T01:02:45.094Z,99879.08
2018-11-27T01:05:15.096Z,99882.07
2018-11-27T01:07:43.652Z,99875.52
2018-11-27T01:10:16.053Z,99881.99
2018-11-27T01:12:44.665Z,99882.85
2018-11-27T01:15:14.086Z,99890.23
2018-11-27T01:17:45.891Z,99881.99
2018-11-27T01:20:20.550Z,99890.20
2018-11-27T01:22:49.132Z,99893.23
2018-11-27T01:25:17.672Z,99894.09
2018-11-27T01:27:46.198Z,99894.92
2018-11-27T01:30:19.982Z,99891.88
2018-11-27T01:32:48.874Z,99896.19
2018-11-27T01:35:19.291Z,99899.23
2018-11-27T01:37:48.717Z,99906.15
2018-11-27T01:40:20.281Z,99907.03
2018-11-27T01:42:49.961Z,99906.65
2018-11-27T01:45:19.569Z,99903.16
2018-11-27T01:47:48.333Z,99910.52
2018-11-27T01:50:17.508Z,99913.09
2018-11-27T01:52:46.053Z,99907.84
2018-11-27T01:55:15.548Z,99906.92
2018-11-27T01:57:44.093Z,99913.42
2018-11-27T02:00:16.459Z,99908.61
2018-11-27T02:02:45.001Z,99904.30
2018-11-27T02:05:13.528Z,99910.71
2018-11-27T02:07:42.044Z,99915.50
2018-11-27T02:10:11.845Z,99914.17
2018-11-27T02:12:41.279Z,99911.58
2018-11-27T02:15:12.418Z,99914.17
2018-11-27T02:17:40.902Z,99911.63
2018-11-27T02:20:10.852Z,99912.07
2018-11-27T02:22:39.416Z,99902.53
2018-11-27T02:25:17.955Z,99902.09
2018-11-27T02:27:46.490Z,99902.89
2018-11-27T02:30:17.586Z,99890.28
2018-11-27T02:32:46.120Z,99894.56
2018-11-27T02:35:17.549Z,99898.88
2018-11-27T02:37:46.614Z,99895.01
2018-11-27T02:40:16.674Z,99897.99
2018-11-27T02:42:45.249Z,99898.34
2018-11-27T02:45:16.087Z,99898.34
2018-11-27T02:47:45.166Z,99901.77
2018-11-27T02:50:16.223Z,99909.09
2018-11-27T02:52:44.717Z,99906.47
2018-11-27T02:55:14.105Z,99902.98
2018-11-27T02:57:42.607Z,99907.29
2018-11-27T03:00:13.948Z,99910.30
2018-11-27T03:02:42.432Z,99913.31
2018-11-27T03:05:12.445Z,99904.66
2018-11-27T03:07:40.893Z,99916.73
2018-11-27T03:10:12.744Z,99916.73
2018-11-27T03:12:41.242Z,99915.91
2018-11-27T03:15:13.735Z,99923.29
2018-11-27T03:17:42.149Z,99917.66
2018-11-27T03:20:14.543Z,99928.42
2018-11-27T03:22:43.013Z,99933.58
2018-11-27T03:25:19.809Z,99933.58
2018-11-27T03:27:49.291Z,99936.18
2018-11-27T03:30:21.777Z,99940.39
2018-11-27T03:32:50.265Z,99938.20
2018-11-27T03:35:20.685Z,99943.36
2018-11-27T03:37:49.413Z,99942.44
2018-11-27T03:40:21.828Z,99947.63
2018-11-27T03:42:50.404Z,99948.92
2018-11-27T03:45:19.591Z,99938.55
2018-11-27T03:47:48.181Z,99935.91
2018-11-27T03:50:20.710Z,99946.70
2018-11-27T03:52:49.204Z,99948.83
2018-11-27T03:55:17.748Z,99951.80
2018-11-27T03:57:46.193Z,99951.80
2018-11-27T04:00:16.830Z,99949.16
2018-11-27T04:02:46.985Z,99952.20
2018-11-27T04:05:15.505Z,99949.57
2018-11-27T04:07:43.974Z,99947.37
2018-11-27T04:10:15.327Z,99949.50
2018-11-27T04:12:43.844Z,99955.98
2018-11-27T04:15:12.949Z,99960.70
2018-11-27T04:17:41.494Z,99964.11
2018-11-27T04:20:11.075Z,99962.36
2018-11-27T04:22:39.852Z,99967.92
2018-11-27T04:25:13.463Z,99970.07
2018-11-27T04:27:41.997Z,99971.30
2018-11-27T04:30:12.162Z,99972.11
2018-11-27T04:32:40.783Z,99973.80
2018-11-27T04:35:10.501Z,99969.84
2018-11-27T04:37:39.026Z,99974.98
2018-11-27T04:40:10.159Z,99972.80
2018-11-27T04:42:38.769Z,99973.28
2018-11-27T04:45:16.031Z,99975.02
2018-11-27T04:47:44.569Z,99977.63
2018-11-27T04:50:14.199Z,99978.52
2018-11-27T04:52:42.890Z,99977.74
2018-11-27T04:55:12.582Z,99981.27
2018-11-27T04:57:41.150Z,99978.64
2018-11-27T05:00:13.764Z,99985.16
2018-11-27T05:02:42.320Z,99990.44
2018-11-27T05:05:11.117Z,99992.66
2018-11-27T05:07:39.773Z,99994.92
2018-11-27T05:10:17.542Z,100002.34
2018-11-27T05:12:46.131Z,100003.31
2018-11-27T05:15:22.406Z,100002.09
2018-11-27T05:17:52.016Z,100005.69
2018-11-27T05:20:20.584Z,100008.77
2018-11-27T05:22:49.108Z,100006.24
2018-11-27T05:25:18.684Z,100008.06
2018-11-27T05:27:48.908Z,100007.69
2018-11-27T05:30:22.362Z,99998.15
2018-11-27T05:32:50.833Z,100003.38
2018-11-27T05:35:20.438Z,100010.80
2018-11-27T05:37:50.389Z,100015.66
2018-11-27T05:40:20.059Z,100013.57
2018-11-27T05:42:49.680Z,100016.64
2018-11-27T05:45:19.468Z,100015.83
2018-11-27T05:47:48.077Z,100017.13
2018-11-27T05:50:17.662Z,100017.56
2018-11-27T05:52:46.252Z,100017.02
2018-11-27T05:55:15.318Z,100017.02
2018-11-27T05:57:44.846Z,100027.42
2018-11-27T06:00:15.481Z,100024.81
2018-11-27T06:02:44.119Z,100027.42
2018-11-27T06:05:15.602Z,100035.62
2018-11-27T06:07:44.266Z,100038.22
2018-11-27T06:10:14.155Z,100040.85
2018-11-27T06:12:42.789Z,100040.41
2018-11-27T06:15:13.519Z,100047.38
2018-11-27T06:17:42.587Z,100048.72
2018-11-27T06:20:12.821Z,100055.25
2018-11-27T06:22:41.424Z,100056.96
2018-11-27T06:25:20.078Z,100054.33
2018-11-27T06:27:50.948Z,100056.92
2018-11-27T06:30:21.406Z,100059.94
2018-11-27T06:32:50.296Z,100062.16
2018-11-27T06:35:21.427Z,100068.69
2018-11-27T06:37:50.081Z,100072.66
2018-11-27T06:40:21.887Z,100074.44
2018-11-27T06:42:50.742Z,100078.38
2018-11-27T06:45:20.175Z,100087.98
2018-11-27T06:47:50.754Z,100088.91
2018-11-27T06:50:23.494Z,100088.53
2018-11-27T06:52:52.102Z,100089.01
2018-11-27T06:55:21.858Z,100089.48
2018-11-27T06:57:50.481Z,100091.27
2018-11-27T07:00:23.282Z,100093.90
2018-11-27T07:02:52.652Z,100104.77
2018-11-27T07:05:21.270Z,100103.89
2018-11-27T07:07:49.775Z,100105.63
2018-11-27T07:10:19.661Z,100106.97
2018-11-27T07:12:49.483Z,100110.08
2018-11-27T07:15:20.575Z,100110.97
2018-11-27T07:17:49.215Z,100114.01
2018-11-27T07:20:17.940Z,100115.78
2018-11-27T07:22:46.614Z,100124.45
2018-11-27T07:25:16.239Z,100133.99
2018-11-27T07:27:46.881Z,100147.03
2018-11-27T07:30:20.295Z,100153.16
2018-11-27T07:32:48.449Z,100154.05
2018-11-27T07:35:17.752Z,100150.18
2018-11-27T07:37:46.510Z,100153.70
2018-11-27T07:40:19.207Z,100152.47
2018-11-27T07:42:48.247Z,100153.80
2018-11-27T07:45:17.833Z,100159.06
2018-11-27T07:47:46.506Z,100155.61
2018-11-27T07:50:15.775Z,100157.80
2018-11-27T07:52:44.421Z,100161.70
2018-11-27T07:55:19.783Z,100159.98
2018-11-27T07:57:48.488Z,100163.06
2018-11-27T08:00:20.276Z,100154.84
2018-11-27T08:02:50.891Z,100152.74
2018-11-27T08:05:21.747Z,100163.63
2018-11-27T08:07:54.346Z,100159.72
2018-11-27T08:10:26.988Z,100163.63
2018-11-27T08:12:55.693Z,100161.82
2018-11-27T08:15:27.136Z,100164.45
2018-11-27T08:17:55.823Z,100179.27
2018-11-27T08:20:25.677Z,100175.40
2018-11-27T08:22:54.238Z,100175.91
2018-11-27T08:25:22.959Z,100174.62
2018-11-27T08:27:51.664Z,100168.54
2018-11-27T08:30:21.224Z,100174.19
2018-11-27T08:32:49.971Z,100173.36
2018-11-27T08:35:22.811Z,100177.27
2018-11-27T08:37:53.100Z,100180.34
2018-11-27T08:40:22.752Z,100188.20
2018-11-27T08:42:51.369Z,100191.67
2018-11-27T08:45:21.816Z,100191.29
2018-11-27T08:47:51.142Z,100194.80
2018-11-27T08:50:21.738Z,100197.08
2018-11-27T08:52:52.540Z,100202.34
2018-11-27T08:55:24.356Z,100205.86
2018-11-27T08:57:53.395Z,100208.00
2018-11-27T09:00:23.057Z,100206.64
2018-11-27T09:02:52.234Z,100209.69
2018-11-27T09:05:20.933Z,100213.52
2018-11-27T09:07:50.130Z,100208.36
2018-11-27T09:10:19.711Z,100207.94
2018-11-27T09:12:48.614Z,100212.34
2018-11-27T09:15:18.325Z,100211.95
2018-11-27T09:17:52.749Z,100207.19
2018-11-27T09:20:21.303Z,100206.33
2018-11-27T09:22:49.907Z,100207.71
2018-11-27T09:25:18.575Z,100209.48
2018-11-27T09:27:47.284Z,100217.82
2018-11-27T09:30:21.301Z,100226.14
2018-11-27T09:32:49.917Z,100226.63
2018-11-27T09:38:09.730Z,100226.70
2018-11-27T09:40:38.400Z,100233.70
2018-11-27T09:43:07.441Z,100237.67
2018-11-27T09:45:37.270Z,100238.55
2018-11-27T09:48:06.040Z,100239.45
2018-11-27T09:50:34.664Z,100239.06
2018-11-27T09:53:03.511Z,100242.58
2018-11-27T09:55:32.439Z,100235.64
2018-11-27T09:58:01.213Z,100236.06
2018-11-27T10:00:32.459Z,100234.73
2018-11-27T10:03:04.807Z,100231.73
2018-11-27T10:05:33.488Z,100235.66
2018-11-27T10:08:02.204Z,100230.03
2018-11-27T10:10:30.800Z,100237.03
2018-11-27T10:12:59.398Z,100242.24
2018-11-27T10:15:29.141Z,100237.03
2018-11-27T10:17:58.894Z,100230.08
2018-11-27T10:20:43.685Z,100226.59
2018-11-27T10:23:13.560Z,100216.53
2018-11-27T10:25:42.108Z,100220.89
2018-11-27T10:28:10.810Z,100220.98
2018-11-27T10:30:39.354Z,100214.48
2018-11-27T10:33:11.121Z,100210.21
2018-11-27T10:35:44.162Z,100206.82
2018-11-27T10:38:12.813Z,100208.60
2018-11-27T10:40:41.392Z,100201.20
2018-11-27T10:43:10.085Z,100206.39
2018-11-27T10:45:38.735Z,100138.28
2018-11-27T10:48:07.668Z,100209.52
2018-11-27T10:50:36.363Z,100205.23
2018-11-27T10:53:05.214Z,100209.66
2018-11-27T10:55:33.771Z,100209.23
2018-11-27T10:58:02.344Z,100207.05
2018-11-27T11:00:36.218Z,100212.27
2018-11-27T11:03:30.016Z,100211.80
2018-11-27T11:05:58.567Z,100201.77
2018-11-27T11:08:27.079Z,100207.88
2018-11-27T11:10:55.578Z,100204.82
2018-11-27T11:13:24.187Z,100210.50
2018-11-27T11:15:52.696Z,100211.36
2018-11-27T11:18:21.340Z,100208.78
2018-11-27T11:20:49.901Z,100222.30
2018-11-27T11:23:18.467Z,100231.84
2018-11-27T11:25:47.101Z,100232.74
2018-11-27T11:28:17.039Z,100239.23
2018-11-27T11:30:45.635Z,100235.22
2018-11-27T11:33:14.195Z,100238.73
2018-11-27T11:35:42.924Z,100240.03
2018-11-27T11:38:11.528Z,100241.77
2018-11-27T11:40:40.103Z,100233.06
2018-11-27T11:43:08.648Z,100235.19
2018-11-27T11:45:37.157Z,100239.94
2018-11-27T11:48:05.850Z,100244.69
2018-11-27T11:50:36.141Z,100245.98
2018-11-27T11:53:15.685Z,100242.88
2018-11-27T11:55:44.402Z,100243.78
2018-11-27T11:58:12.990Z,100237.31
2018-11-27T12:00:47.472Z,100244.29
2018-11-27T12:03:16.037Z,100244.29
2018-11-27T12:05:44.716Z,100236.46
2018-11-27T12:08:13.235Z,100239.05
2018-11-27T12:10:42.122Z,100241.60
2018-11-27T12:13:11.686Z,100246.33
2018-11-27T12:15:40.458Z,100252.02
2018-11-27T12:18:10.093Z,100253.37
2018-11-27T12:20:39.743Z,100251.99
2018-11-27T12:23:09.893Z,100247.19
2018-11-27T12:25:38.925Z,100248.56
2018-11-27T12:28:08.727Z,100255.55
2018-11-27T12:30:37.267Z,100253.80
2018-11-27T12:33:06.221Z,100254.66
2018-11-27T12:35:34.918Z,100250.75
2018-11-27T12:38:03.544Z,100252.92
2018-11-27T12:40:32.414Z,100254.15
2018-11-27T12:43:01.050Z,100258.53
2018-11-27T12:45:33.649Z,100262.38
2018-11-27T12:48:03.213Z,100264.17
2018-11-27T12:50:40.346Z,100268.16
2018-11-27T12:53:16.743Z,100267.31
2018-11-27T12:55:42.887Z,100271.71
2018-11-27T12:58:11.391Z,100271.74
2018-11-27T13:00:40.060Z,100264.37
2018-11-27T13:03:08.664Z,100270.07
2018-11-27T13:05:40.121Z,100273.55
2018-11-27T13:08:11.209Z,100274.87
2018-11-27T13:10:39.843Z,100276.16
2018-11-27T13:13:08.362Z,100282.28
2018-11-27T13:15:38.171Z,100276.55
2018-11-27T13:18:07.876Z,100283.00
2018-11-27T13:20:36.526Z,100283.80
2018-11-27T13:23:05.131Z,100282.41
2018-11-27T13:25:33.778Z,100279.71
2018-11-27T13:28:02.293Z,100275.31
2018-11-27T13:30:53.561Z,100277.02
2018-11-27T13:33:24.199Z,100279.92
2018-11-27T13:35:52.844Z,100275.09
2018-11-27T13:38:21.402Z,100273.36
2018-11-27T13:40:49.948Z,100278.57
2018-11-27T13:43:22.935Z,100277.16
2018-11-27T13:45:51.593Z,100277.22
2018-11-27T13:48:20.151Z,100276.36
2018-11-27T13:50:48.802Z,100275.96
2018-11-27T13:53:17.443Z,100282.42
2018-11-27T13:55:46.027Z,100290.14
2018-11-27T13:58:14.541Z,100286.16
2018-11-27T14:00:43.029Z,100283.08
2018-11-27T14:03:11.657Z,100285.22
2018-11-27T14:05:40.241Z,100278.25
2018-11-27T14:08:09.576Z,100277.45
2018-11-27T14:10:38.910Z,100270.08
2018-11-27T14:13:08.709Z,100280.47
2018-11-27T14:15:37.600Z,100221.64
2018-11-27T14:18:06.873Z,100288.68
2018-11-27T14:20:35.494Z,100285.69
2018-11-27T14:23:04.225Z,100292.64
2018-11-27T14:25:32.758Z,100292.26
2018-11-27T14:28:01.322Z,100297.47
2018-11-27T14:30:29.911Z,100300.16
2018-11-27T14:32:58.570Z,100296.64
2018-11-27T14:35:27.101Z,100298.83
2018-11-27T14:37:56.114Z,100303.17
2018-11-27T14:40:28.202Z,100298.88
2018-11-27T14:42:56.769Z,100301.91
2018-11-27T14:45:26.306Z,100300.12
2018-11-27T14:47:55.811Z,100292.70
2018-11-27T14:50:24.603Z,100304.43
2018-11-27T14:52:53.249Z,100300.88
2018-11-27T14:55:30.696Z,100311.25
2018-11-27T14:57:59.198Z,100314.59
2018-11-27T15:00:28.180Z,100313.67
2018-11-27T15:02:57.052Z,100319.23
2018-11-27T15:05:34.911Z,100320.51
2018-11-27T15:08:04.505Z,100331.79
2018-11-27T15:10:33.749Z,100329.19
2018-11-27T15:13:02.474Z,100323.97
2018-11-27T15:15:31.181Z,100327.02
2018-11-27T15:17:59.767Z,100328.80
2018-11-27T15:20:28.488Z,100330.13
2018-11-27T15:22:57.390Z,100329.69
2018-11-27T15:25:26.040Z,100329.34
2018-11-27T15:27:54.683Z,100322.80
2018-11-27T15:30:24.522Z,100323.23
2018-11-27T15:32:54.960Z,100328.03
2018-11-27T15:35:23.495Z,100337.59
2018-11-27T15:37:52.077Z,100338.05
2018-11-27T15:40:23.737Z,100342.37
2018-11-27T15:42:52.679Z,100322.58
2018-11-27T15:45:26.663Z,100345.80
2018-11-27T15:47:55.204Z,100347.98
2018-11-27T15:50:23.764Z,100338.39
2018-11-27T15:52:52.466Z,100329.28
2018-11-27T15:55:26.327Z,100328.45
2018-11-27T15:58:00.996Z,100332.39
2018-11-27T16:00:29.556Z,100320.66
2018-11-27T16:02:58.142Z,100321.97
2018-11-27T16:05:26.655Z,100323.71
2018-11-27T16:07:55.373Z,100324.95
2018-11-27T16:10:23.890Z,100327.56
2018-11-27T16:12:52.561Z,100324.09
2018-11-27T16:15:21.419Z,100329.75
2018-11-27T16:17:50.615Z,100330.23
2018-11-27T16:20:21.540Z,100337.19
2018-11-27T16:22:53.160Z,100335.02
2018-11-27T16:25:22.871Z,100322.83
2018-11-27T16:27:51.475Z,100321.49
2018-11-27T16:30:28.459Z,100327.08
2018-11-27T16:32:57.065Z,100332.70
2018-11-27T16:35:25.579Z,100338.36
2018-11-27T16:37:57.189Z,100343.95
2018-11-27T16:40:30.280Z,100349.55
2018-11-27T16:42:58.907Z,100345.13
2018-11-27T16:45:27.418Z,100338.03
2018-11-27T16:47:55.993Z,100332.25
2018-11-27T16:50:24.519Z,100337.24
2018-11-27T16:52:53.062Z,100369.22
2018-11-27T16:55:22.621Z,100345.60
2018-11-27T16:57:51.258Z,100338.95
2018-11-27T17:00:23.937Z,100334.06
2018-11-27T17:02:53.846Z,100331.67
2018-11-27T17:05:22.346Z,100328.47
2018-11-27T17:07:50.829Z,100337.86
2018-11-27T17:10:20.362Z,100335.62
2018-11-27T17:12:50.280Z,100340.25
2018-11-27T17:15:20.193Z,100343.25
2018-11-27T17:17:48.806Z,100337.10
2018-11-27T17:20:34.357Z,100337.91
2018-11-27T17:23:04.025Z,100090.86
2018-11-27T17:25:32.486Z,100338.63
2018-11-27T17:28:02.734Z,100332.84
2018-11-27T17:30:41.135Z,100337.96
2018-11-27T17:33:12.838Z,100339.08
2018-11-27T17:35:41.481Z,100348.52
2018-11-27T17:38:10.007Z,100355.41
2018-11-27T17:40:38.562Z,100347.97
2018-11-27T17:43:07.217Z,100348.72
2018-11-27T17:45:35.743Z,100349.52
2018-11-27T17:48:04.272Z,100356.81
2018-11-27T17:50:32.769Z,100357.56
2018-11-27T17:53:01.283Z,100351.82
2018-11-27T17:55:29.800Z,100344.38
2018-11-27T17:57:58.464Z,100358.61
2018-11-27T18:00:29.943Z,100360.70
2018-11-27T18:03:01.318Z,100362.39
2018-11-27T18:05:30.721Z,100358.16
2018-11-27T18:08:00.661Z,100352.56
2018-11-27T18:10:27.817Z,100356.06
2018-11-27T18:12:56.354Z,100363.75
2018-11-27T18:15:24.903Z,100357.70
2018-11-27T18:17:53.381Z,100358.05
2018-11-27T18:20:22.047Z,100353.70
2018-11-27T18:22:50.721Z,100350.56
2018-11-27T18:25:20.169Z,100354.75
2018-11-27T18:33:29.503Z,100345.23
2018-11-27T18:35:58.038Z,100343.08
2018-11-27T18:38:26.658Z,100344.22
2018-11-27T18:40:55.242Z,100349.86
2018-11-27T18:43:23.843Z,100345.13
2018-11-27T18:45:52.486Z,100352.00
2018-11-27T18:48:21.160Z,100353.25
2018-11-27T18:50:49.813Z,100354.59
2018-11-27T18:53:18.371Z,100350.66
2018-11-27T18:55:46.994Z,100342.02
2018-11-27T18:58:15.879Z,100352.73
2018-11-27T19:00:44.519Z,100347.94
2018-11-27T19:03:13.046Z,100343.45
2018-11-27T19:05:41.535Z,100342.52
2018-11-27T19:08:10.148Z,100334.98
2018-11-27T19:10:38.890Z,100338.97
2018-11-27T19:13:07.913Z,100338.42
2018-11-27T19:15:38.985Z,100340.05
2018-11-27T19:18:27.745Z,100340.50
2018-11-27T19:20:56.326Z,100337.12
2018-11-27T19:23:26.418Z,100335.83
2018-11-27T19:25:56.179Z,100330.69
2018-11-27T19:28:24.770Z,100326.39
2018-11-27T19:30:53.342Z,100322.86
2018-11-27T19:33:22.025Z,100325.95
2018-11-27T19:35:50.729Z,100332.89
2018-11-27T19:38:20.208Z,100330.19
2018-11-27T19:40:48.765Z,100331.94
2018-11-27T19:43:17.267Z,100327.19
2018-11-27T19:45:47.532Z,100330.17
2018-11-27T19:48:16.281Z,100334.87
2018-11-27T19:50:44.810Z,100338.74
2018-11-27T19:53:14.811Z,100340.84
2018-11-27T19:55:43.281Z,100346.02
2018-11-27T19:58:11.834Z,100352.00
2018-11-27T20:00:40.434Z,100361.47
2018-11-27T20:03:10.430Z,100362.23
2018-11-27T20:05:39.088Z,100364.83
2018-11-27T20:08:09.781Z,100356.21
2018-11-27T20:10:38.334Z,100360.10
2018-11-27T20:13:06.806Z,100373.79
2018-11-27T20:15:35.264Z,100364.61
2018-11-27T20:18:03.717Z,100371.02
2018-11-27T20:20:32.290Z,100369.67
2018-11-27T20:23:00.741Z,100376.03
2018-11-27T20:25:29.340Z,100371.62
2018-11-27T20:27:57.936Z,100371.56
2018-11-27T20:30:28.966Z,100366.23
2018-11-27T20:32:59.781Z,100370.45
2018-11-27T20:35:29.255Z,100367.89
2018-11-27T20:37:58.985Z,100364.81
2018-11-27T20:40:27.803Z,100363.39
2018-11-27T20:42:56.448Z,100375.38
2018-11-27T20:45:26.272Z,100371.45
2018-11-27T20:48:03.051Z,100375.59
2018-11-27T20:50:31.603Z,100394.45
2018-11-27T20:53:00.194Z,100371.19
2018-11-27T20:55:28.783Z,100372.81
2018-11-27T20:57:58.984Z,100372.73
2018-11-27T21:00:39.037Z,100381.48
2018-11-27T21:03:08.947Z,100383.83
2018-11-27T21:05:37.636Z,100376.25
2018-11-27T21:08:07.056Z,100375.20
2018-11-27T21:10:35.856Z,100375.27
2018-11-27T21:13:04.451Z,100378.64
2018-11-27T21:15:33.206Z,100375.44
2018-11-27T21:18:01.879Z,100381.12
2018-11-27T21:20:30.458Z,100369.02
2018-11-27T21:22:59.007Z,100368.12
2018-11-27T21:25:30.098Z,100366.67
2018-11-27T21:28:03.203Z,100368.47
2018-11-27T21:30:31.879Z,100371.47
2018-11-27T21:33:00.482Z,100373.60
2018-11-27T21:35:29.083Z,100376.00
2018-11-27T21:37:57.698Z,100381.38
2018-11-27T21:40:26.234Z,100392.19
2018-11-27T21:42:54.780Z,100380.08
2018-11-27T21:45:24.663Z,100378.13
2018-11-27T21:47:53.937Z,100384.74
2018-11-27T21:50:28.753Z,100385.13
2018-11-27T21:52:58.057Z,100388.11
2018-11-27T21:55:26.578Z,100389.90
2018-11-27T21:57:55.114Z,100385.87
2018-11-27T22:00:25.061Z,100389.01
2018-11-27T22:02:53.707Z,100394.97
2018-11-27T22:05:22.255Z,100394.97
2018-11-27T22:07:50.824Z,100396.72
2018-11-27T22:10:21.776Z,100382.94
2018-11-27T22:12:54.102Z,100386.14
2018-11-27T22:15:29.251Z,100386.23
2018-11-27T22:17:57.734Z,100381.10
2018-11-27T22:20:26.266Z,100380.13
2018-11-27T22:22:54.954Z,100380.51
2018-11-27T22:25:23.512Z,100386.78
2018-11-27T22:27:52.032Z,100381.37
2018-11-27T22:30:21.142Z,100377.02
2018-11-27T22:32:50.933Z,100382.87
2018-11-27T22:35:19.443Z,100385.49
2018-11-27T22:37:47.979Z,100373.38
2018-11-27T22:40:18.473Z,100382.16
2018-11-27T22:42:47.406Z,100386.97
2018-11-27T22:45:20.967Z,100383.92
2018-11-27T22:47:49.489Z,100381.92
2018-11-27T22:50:18.869Z,100378.36
2018-11-27T22:52:47.444Z,100391.05
2018-11-27T22:55:15.987Z,100384.89
2018-11-27T22:57:44.604Z,100391.94
2018-11-27T23:00:23.290Z,100392.80
2018-11-27T23:02:51.833Z,100399.59
2018-11-27T23:05:20.582Z,100388.00
2018-11-27T23:07:49.099Z,100385.95
2018-11-27T23:10:17.578Z,100379.72
2018-11-27T23:12:46.368Z,100386.41
2018-11-27T23:15:16.307Z,100383.48
2018-11-27T23:17:44.895Z,100375.97
2018-11-27T23:20:16.128Z,100376.48
2018-11-27T23:22:44.708Z,100376.95
2018-11-27T23:25:14.360Z,100363.48
2018-11-27T23:27:42.952Z,100364.53
2018-11-27T23:30:18.654Z,100364.89
2018-11-27T23:32:47.323Z,100359.71
2018-11-27T23:35:15.846Z,100362.76
2018-11-27T23:37:44.399Z,100338.73
2018-11-27T23:40:16.267Z,100362.78
2018-11-27T23:42:45.210Z,100353.91
2018-11-27T23:45:17.110Z,100362.08
2018-11-27T23:47:45.679Z,100359.09
2018-11-27T23:50:15.519Z,100359.49
2018-11-27T23:52:44.427Z,100354.94
2018-11-27T23:55:14.003Z,100353.91
2018-11-27T23:57:42.906Z,100355.42
